sensor_id;sensor_type;location;lat;lon;timestamp;pressure;altitude;pressure_sealevel;temperature;humidity
10706;BME280;5404;42.656;23.336;2023-03-22T00:00:06;94633.94;;;9.15;100.00
10706;BME280;5404;42.656;23.336;2023-03-22T00:02:36;94641.31;;;9.04;100.00
10706;BME280;5404;42.656;23.336;2023-03-22T00:05:02;94642.16;;;9.00;100.00
10706;BME280;5404;42.656;23.336;2023-03-22T00:07:27;94638.28;;;8.92;100.00
10706;BME280;5404;42.656;23.336;2023-03-22T00:09:54;94621.41;;;8.83;100.00
10706;BME280;5404;42.656;23.336;2023-03-22T00:12:21;94632.19;;;8.92;100.00
10706;BME280;5404;42.656;23.336;2023-03-22T00:14:46;94635.56;;;8.97;100.00
10706;BME280;5404;42.656;23.336;2023-03-22T00:17:14;94632.97;;;8.92;100.00
10706;BME280;5404;42.656;23.336;2023-03-22T00:19:40;94633.06;;;8.87;100.00
10706;BME280;5404;42.656;23.336;2023-03-22T00:22:06;94635.13;;;8.90;100.00
10706;BME280;5404;42.656;23.336;2023-03-22T00:24:32;94629.31;;;8.88;100.00
10706;BME280;5404;42.656;23.336;2023-03-22T00:26:58;94630.31;;;8.92;100.00
10706;BME280;5404;42.656;23.336;2023-03-22T00:29:24;94627.38;;;8.94;100.00
10706;BME280;5404;42.656;23.336;2023-03-22T00:31:50;94624.28;;;8.87;100.00
10706;BME280;5404;42.656;23.336;2023-03-22T00:34:16;94595.63;;;8.65;100.00
10706;BME280;5404;42.656;23.336;2023-03-22T00:36:42;94627.25;;;8.85;100.00
10706;BME280;5404;42.656;23.336;2023-03-22T00:39:07;94624.38;;;8.82;100.00
10706;BME280;5404;42.656;23.336;2023-03-22T00:41:33;94621.72;;;8.82;100.00
10706;BME280;5404;42.656;23.336;2023-03-22T00:43:58;94619.81;;;8.82;100.00
10706;BME280;5404;42.656;23.336;2023-03-22T00:46:24;94627.03;;;8.82;100.00
10706;BME280;5404;42.656;23.336;2023-03-22T00:48:50;94620.91;;;8.81;100.00
10706;BME280;5404;42.656;23.336;2023-03-22T00:51:15;94619.63;;;8.79;100.00
10706;BME280;5404;42.656;23.336;2023-03-22T00:53:41;94619.03;;;8.82;100.00
10706;BME280;5404;42.656;23.336;2023-03-22T00:56:07;94622.53;;;8.77;100.00
10706;BME280;5404;42.656;23.336;2023-03-22T00:58:32;94619.19;;;8.72;100.00
10706;BME280;5404;42.656;23.336;2023-03-22T01:00:58;94619.41;;;8.75;100.00
10706;BME280;5404;42.656;23.336;2023-03-22T01:03:24;94622.53;;;8.77;100.00
10706;BME280;5404;42.656;23.336;2023-03-22T01:05:52;94623.06;;;8.79;100.00
10706;BME280;5404;42.656;23.336;2023-03-22T01:08:21;94622.00;;;8.80;100.00
10706;BME280;5404;42.656;23.336;2023-03-22T01:10:48;94607.19;;;8.74;100.00
10706;BME280;5404;42.656;23.336;2023-03-22T01:13:14;94611.91;;;8.77;100.00
10706;BME280;5404;42.656;23.336;2023-03-22T01:15:39;94610.13;;;8.73;100.00
10706;BME280;5404;42.656;23.336;2023-03-22T01:18:06;94602.97;;;8.73;100.00
10706;BME280;5404;42.656;23.336;2023-03-22T01:20:32;94609.56;;;8.76;100.00
10706;BME280;5404;42.656;23.336;2023-03-22T01:22:57;94603.94;;;8.77;100.00
10706;BME280;5404;42.656;23.336;2023-03-22T01:25:24;94603.69;;;8.79;100.00
10706;BME280;5404;42.656;23.336;2023-03-22T01:27:49;94604.47;;;8.79;100.00
10706;BME280;5404;42.656;23.336;2023-03-22T01:30:15;94607.69;;;8.76;100.00
10706;BME280;5404;42.656;23.336;2023-03-22T01:32:41;94596.84;;;8.73;100.00
10706;BME280;5404;42.656;23.336;2023-03-22T01:35:07;94597.94;;;8.72;100.00
10706;BME280;5404;42.656;23.336;2023-03-22T01:37:32;94600.88;;;8.70;100.00
10706;BME280;5404;42.656;23.336;2023-03-22T01:39:58;94567.94;;;8.53;100.00
10706;BME280;5404;42.656;23.336;2023-03-22T01:42:24;94587.44;;;8.62;100.00
10706;BME280;5404;42.656;23.336;2023-03-22T01:47:39;94601.00;;;8.60;100.00
10706;BME280;5404;42.656;23.336;2023-03-22T01:50:06;94597.59;;;8.60;100.00
10706;BME280;5404;42.656;23.336;2023-03-22T01:52:32;94592.53;;;8.58;100.00
10706;BME280;5404;42.656;23.336;2023-03-22T01:54:59;94583.50;;;8.59;100.00
10706;BME280;5404;42.656;23.336;2023-03-22T01:57:25;94590.91;;;8.62;100.00
10706;BME280;5404;42.656;23.336;2023-03-22T01:59:50;94589.41;;;8.56;100.00
10706;BME280;5404;42.656;23.336;2023-03-22T02:02:16;94593.91;;;8.56;100.00
10706;BME280;5404;42.656;23.336;2023-03-22T02:04:47;94583.66;;;8.49;100.00
10706;BME280;5404;42.656;23.336;2023-03-22T02:07:16;94586.66;;;8.43;100.00
10706;BME280;5404;42.656;23.336;2023-03-22T02:09:50;94571.06;;;8.36;100.00
10706;BME280;5404;42.656;23.336;2023-03-22T02:15:21;94586.44;;;8.39;100.00
10706;BME280;5404;42.656;23.336;2023-03-22T02:23:36;94592.75;;;8.43;100.00
10706;BME280;5404;42.656;23.336;2023-03-22T02:28:57;94597.00;;;8.44;100.00
10706;BME280;5404;42.656;23.336;2023-03-22T02:37:04;94607.91;;;8.43;100.00
10706;BME280;5404;42.656;23.336;2023-03-22T02:45:25;94606.47;;;8.50;100.00
10706;BME280;5404;42.656;23.336;2023-03-22T02:51:08;94617.59;;;8.52;100.00
10706;BME280;5404;42.656;23.336;2023-03-22T02:53:30;94615.06;;;8.42;100.00
10706;BME280;5404;42.656;23.336;2023-03-22T02:58:49;94615.59;;;8.44;100.00
10706;BME280;5404;42.656;23.336;2023-03-22T03:01:26;94609.19;;;8.45;100.00
10706;BME280;5404;42.656;23.336;2023-03-22T03:03:56;94609.75;;;8.42;100.00
10706;BME280;5404;42.656;23.336;2023-03-22T03:06:26;94608.97;;;8.42;100.00
10706;BME280;5404;42.656;23.336;2023-03-22T03:08:56;94597.31;;;8.38;100.00
10706;BME280;5404;42.656;23.336;2023-03-22T03:11:23;94600.84;;;8.33;100.00
10706;BME280;5404;42.656;23.336;2023-03-22T03:13:50;94619.88;;;8.40;100.00
10706;BME280;5404;42.656;23.336;2023-03-22T03:16:19;94613.97;;;8.43;100.00
10706;BME280;5404;42.656;23.336;2023-03-22T03:18:47;94615.66;;;8.39;100.00
10706;BME280;5404;42.656;23.336;2023-03-22T03:28:56;94620.06;;;8.25;100.00
10706;BME280;5404;42.656;23.336;2023-03-22T03:34:25;94624.22;;;8.31;100.00
10706;BME280;5404;42.656;23.336;2023-03-22T03:37:05;94591.66;;;8.20;100.00
10706;BME280;5404;42.656;23.336;2023-03-22T03:39:34;94622.72;;;8.25;100.00
10706;BME280;5404;42.656;23.336;2023-03-22T03:42:03;94620.88;;;8.20;100.00
10706;BME280;5404;42.656;23.336;2023-03-22T03:44:31;94623.50;;;8.20;100.00
10706;BME280;5404;42.656;23.336;2023-03-22T03:47:00;94600.63;;;8.06;100.00
10706;BME280;5404;42.656;23.336;2023-03-22T03:49:26;94625.72;;;8.13;100.00
10706;BME280;5404;42.656;23.336;2023-03-22T03:51:54;94619.06;;;8.16;100.00
10706;BME280;5404;42.656;23.336;2023-03-22T03:54:20;94620.41;;;8.13;100.00
10706;BME280;5404;42.656;23.336;2023-03-22T03:56:47;94620.94;;;8.15;100.00
10706;BME280;5404;42.656;23.336;2023-03-22T03:59:14;94617.50;;;8.15;100.00
10706;BME280;5404;42.656;23.336;2023-03-22T04:01:42;94632.84;;;8.18;100.00
10706;BME280;5404;42.656;23.336;2023-03-22T04:04:21;94630.13;;;8.23;100.00
10706;BME280;5404;42.656;23.336;2023-03-22T04:06:58;94631.72;;;8.24;100.00
10706;BME280;5404;42.656;23.336;2023-03-22T04:09:25;94617.72;;;8.18;100.00
10706;BME280;5404;42.656;23.336;2023-03-22T04:11:53;94626.47;;;8.19;100.00
10706;BME280;5404;42.656;23.336;2023-03-22T04:14:19;94626.47;;;8.19;100.00
10706;BME280;5404;42.656;23.336;2023-03-22T04:16:45;94628.13;;;8.15;100.00
10706;BME280;5404;42.656;23.336;2023-03-22T04:19:11;94638.44;;;8.16;100.00
10706;BME280;5404;42.656;23.336;2023-03-22T04:21:37;94624.94;;;8.13;100.00
10706;BME280;5404;42.656;23.336;2023-03-22T04:24:04;94629.75;;;8.11;100.00
10706;BME280;5404;42.656;23.336;2023-03-22T04:26:30;94630.47;;;8.16;100.00
10706;BME280;5404;42.656;23.336;2023-03-22T04:28:56;94636.03;;;8.20;100.00
10706;BME280;5404;42.656;23.336;2023-03-22T04:31:23;94640.25;;;8.21;100.00
10706;BME280;5404;42.656;23.336;2023-03-22T04:33:48;94634.94;;;8.21;100.00
10706;BME280;5404;42.656;23.336;2023-03-22T04:36:19;94642.06;;;8.25;100.00
10706;BME280;5404;42.656;23.336;2023-03-22T04:38:45;94635.94;;;8.30;100.00
10706;BME280;5404;42.656;23.336;2023-03-22T04:41:10;94638.06;;;8.28;100.00
10706;BME280;5404;42.656;23.336;2023-03-22T04:43:37;94650.00;;;8.31;100.00
10706;BME280;5404;42.656;23.336;2023-03-22T04:46:08;94601.50;;;7.96;100.00
10706;BME280;5404;42.656;23.336;2023-03-22T04:48:36;94629.22;;;8.09;100.00
10706;BME280;5404;42.656;23.336;2023-03-22T04:51:04;94637.66;;;8.16;100.00
10706;BME280;5404;42.656;23.336;2023-03-22T04:53:30;94649.53;;;8.23;100.00
10706;BME280;5404;42.656;23.336;2023-03-22T04:55:56;94658.00;;;8.25;100.00
10706;BME280;5404;42.656;23.336;2023-03-22T04:58:25;94654.03;;;8.23;100.00
10706;BME280;5404;42.656;23.336;2023-03-22T05:00:50;94667.19;;;8.33;100.00
10706;BME280;5404;42.656;23.336;2023-03-22T05:03:20;94673.66;;;8.27;100.00
10706;BME280;5404;42.656;23.336;2023-03-22T05:05:53;94668.06;;;8.29;100.00
10706;BME280;5404;42.656;23.336;2023-03-22T05:08:22;94663.28;;;8.25;100.00
10706;BME280;5404;42.656;23.336;2023-03-22T05:10:52;94668.13;;;8.23;100.00
10706;BME280;5404;42.656;23.336;2023-03-22T05:13:20;94666.22;;;8.24;100.00
10706;BME280;5404;42.656;23.336;2023-03-22T05:15:46;94667.84;;;8.25;100.00
10706;BME280;5404;42.656;23.336;2023-03-22T05:18:14;94671.78;;;8.27;100.00
10706;BME280;5404;42.656;23.336;2023-03-22T05:20:42;94678.44;;;8.25;100.00
10706;BME280;5404;42.656;23.336;2023-03-22T05:23:08;94680.34;;;8.19;100.00
10706;BME280;5404;42.656;23.336;2023-03-22T05:25:35;94678.47;;;8.20;100.00
10706;BME280;5404;42.656;23.336;2023-03-22T05:28:02;94685.63;;;8.24;100.00
10706;BME280;5404;42.656;23.336;2023-03-22T05:30:28;94688.53;;;8.23;100.00
10706;BME280;5404;42.656;23.336;2023-03-22T05:32:58;94685.03;;;8.27;100.00
10706;BME280;5404;42.656;23.336;2023-03-22T05:35:25;94672.59;;;8.23;100.00
10706;BME280;5404;42.656;23.336;2023-03-22T05:37:51;94687.94;;;8.31;100.00
10706;BME280;5404;42.656;23.336;2023-03-22T05:40:17;94688.72;;;8.32;100.00
10706;BME280;5404;42.656;23.336;2023-03-22T05:42:43;94679.91;;;8.36;100.00
10706;BME280;5404;42.656;23.336;2023-03-22T05:45:09;94690.41;;;8.46;100.00
10706;BME280;5404;42.656;23.336;2023-03-22T05:47:35;94692.44;;;8.54;100.00
10706;BME280;5404;42.656;23.336;2023-03-22T05:50:05;94693.72;;;8.57;100.00
10706;BME280;5404;42.656;23.336;2023-03-22T05:52:31;94701.16;;;8.60;100.00
10706;BME280;5404;42.656;23.336;2023-03-22T05:54:56;94680.56;;;8.47;100.00
10706;BME280;5404;42.656;23.336;2023-03-22T05:57:25;94698.66;;;8.68;100.00
10706;BME280;5404;42.656;23.336;2023-03-22T05:59:52;94706.91;;;8.67;100.00
10706;BME280;5404;42.656;23.336;2023-03-22T06:02:22;94714.06;;;8.66;100.00
10706;BME280;5404;42.656;23.336;2023-03-22T06:04:48;94701.59;;;8.67;100.00
10706;BME280;5404;42.656;23.336;2023-03-22T06:07:13;94705.31;;;8.66;100.00
10706;BME280;5404;42.656;23.336;2023-03-22T06:09:41;94715.66;;;8.67;100.00
10706;BME280;5404;42.656;23.336;2023-03-22T06:12:06;94705.16;;;8.57;100.00
10706;BME280;5404;42.656;23.336;2023-03-22T06:14:32;94707.75;;;8.62;100.00
10706;BME280;5404;42.656;23.336;2023-03-22T06:16:57;94707.75;;;8.62;100.00
10706;BME280;5404;42.656;23.336;2023-03-22T06:19:23;94712.00;;;8.63;100.00
10706;BME280;5404;42.656;23.336;2023-03-22T06:21:50;94715.13;;;8.65;100.00
10706;BME280;5404;42.656;23.336;2023-03-22T06:24:17;94709.81;;;8.65;100.00
10706;BME280;5404;42.656;23.336;2023-03-22T06:26:43;94710.63;;;8.66;100.00
10706;BME280;5404;42.656;23.336;2023-03-22T06:29:09;94713.91;;;8.58;100.00
10706;BME280;5404;42.656;23.336;2023-03-22T06:31:36;94707.81;;;8.57;100.00
10706;BME280;5404;42.656;23.336;2023-03-22T06:34:02;94715.41;;;8.64;100.00
10706;BME280;5404;42.656;23.336;2023-03-22T06:36:29;94717.19;;;8.73;100.00
10706;BME280;5404;42.656;23.336;2023-03-22T06:38:56;94732.25;;;8.78;100.00
10706;BME280;5404;42.656;23.336;2023-03-22T06:41:23;94720.59;;;8.74;100.00
10706;BME280;5404;42.656;23.336;2023-03-22T06:43:48;94727.53;;;8.75;100.00
10706;BME280;5404;42.656;23.336;2023-03-22T06:46:14;94721.84;;;8.81;100.00
10706;BME280;5404;42.656;23.336;2023-03-22T06:48:39;94720.97;;;8.86;100.00
10706;BME280;5404;42.656;23.336;2023-03-22T06:51:06;94732.00;;;8.98;100.00
10706;BME280;5404;42.656;23.336;2023-03-22T06:53:31;94726.81;;;9.06;100.00
10706;BME280;5404;42.656;23.336;2023-03-22T06:55:57;94729.63;;;9.15;100.00
10706;BME280;5404;42.656;23.336;2023-03-22T06:58:23;94729.31;;;9.21;100.00
10706;BME280;5404;42.656;23.336;2023-03-22T07:00:48;94738.19;;;9.30;100.00
10706;BME280;5404;42.656;23.336;2023-03-22T07:03:14;94707.03;;;9.17;100.00
10706;BME280;5404;42.656;23.336;2023-03-22T07:05:39;94749.13;;;9.48;100.00
10706;BME280;5404;42.656;23.336;2023-03-22T07:08:05;94751.44;;;9.54;100.00
10706;BME280;5404;42.656;23.336;2023-03-22T07:10:30;94745.31;;;9.54;100.00
10706;BME280;5404;42.656;23.336;2023-03-22T07:12:56;94746.84;;;9.60;100.00
10706;BME280;5404;42.656;23.336;2023-03-22T07:15:22;94751.84;;;9.61;100.00
10706;BME280;5404;42.656;23.336;2023-03-22T07:17:50;94747.31;;;9.62;100.00
10706;BME280;5404;42.656;23.336;2023-03-22T07:20:18;94712.31;;;9.36;100.00
10706;BME280;5404;42.656;23.336;2023-03-22T07:22:45;94745.94;;;9.64;100.00
10706;BME280;5404;42.656;23.336;2023-03-22T07:25:11;94754.06;;;9.73;100.00
10706;BME280;5404;42.656;23.336;2023-03-22T07:27:36;94755.00;;;9.82;100.00
10706;BME280;5404;42.656;23.336;2023-03-22T07:30:04;94751.31;;;9.78;100.00
10706;BME280;5404;42.656;23.336;2023-03-22T07:32:29;94752.63;;;9.80;100.00
10706;BME280;5404;42.656;23.336;2023-03-22T07:34:55;94738.34;;;9.58;100.00
10706;BME280;5404;42.656;23.336;2023-03-22T07:37:22;94749.41;;;9.65;100.00
10706;BME280;5404;42.656;23.336;2023-03-22T07:39:48;94743.06;;;9.61;100.00
10706;BME280;5404;42.656;23.336;2023-03-22T07:42:13;94748.47;;;9.56;100.00
10706;BME280;5404;42.656;23.336;2023-03-22T07:44:39;94743.53;;;9.49;100.00
10706;BME280;5404;42.656;23.336;2023-03-22T07:47:04;94750.78;;;9.43;100.00
10706;BME280;5404;42.656;23.336;2023-03-22T07:49:30;94711.09;;;9.10;100.00
10706;BME280;5404;42.656;23.336;2023-03-22T07:51:56;94755.09;;;9.39;100.00
10706;BME280;5404;42.656;23.336;2023-03-22T07:54:23;94760.69;;;9.38;100.00
10706;BME280;5404;42.656;23.336;2023-03-22T07:56:48;94759.47;;;9.30;100.00
10706;BME280;5404;42.656;23.336;2023-03-22T07:59:15;94760.53;;;9.29;100.00
10706;BME280;5404;42.656;23.336;2023-03-22T08:01:41;94741.06;;;9.15;100.00
10706;BME280;5404;42.656;23.336;2023-03-22T08:04:07;94763.00;;;9.26;100.00
10706;BME280;5404;42.656;23.336;2023-03-22T08:06:32;94757.44;;;9.22;100.00
10706;BME280;5404;42.656;23.336;2023-03-22T08:08:59;94755.09;;;9.21;100.00
10706;BME280;5404;42.656;23.336;2023-03-22T08:11:24;94752.72;;;9.19;100.00
10706;BME280;5404;42.656;23.336;2023-03-22T08:13:50;94757.16;;;9.24;100.00
10706;BME280;5404;42.656;23.336;2023-03-22T08:16:15;94755.22;;;9.29;100.00
10706;BME280;5404;42.656;23.336;2023-03-22T08:18:41;94729.44;;;9.11;100.00
10706;BME280;5404;42.656;23.336;2023-03-22T08:21:09;94721.25;;;9.08;100.00
10706;BME280;5404;42.656;23.336;2023-03-22T08:23:34;94761.84;;;9.32;100.00
10706;BME280;5404;42.656;23.336;2023-03-22T08:26:00;94763.78;;;9.26;100.00
10706;BME280;5404;42.656;23.336;2023-03-22T08:28:27;94756.75;;;9.35;100.00
10706;BME280;5404;42.656;23.336;2023-03-22T08:30:53;94765.72;;;9.39;100.00
10706;BME280;5404;42.656;23.336;2023-03-22T08:33:18;94772.84;;;9.44;100.00
10706;BME280;5404;42.656;23.336;2023-03-22T08:35:46;94769.03;;;9.50;100.00
10706;BME280;5404;42.656;23.336;2023-03-22T08:38:12;94775.16;;;9.51;100.00
10706;BME280;5404;42.656;23.336;2023-03-22T08:40:38;94765.72;;;9.58;100.00
10706;BME280;5404;42.656;23.336;2023-03-22T08:43:03;94769.47;;;9.57;100.00
10706;BME280;5404;42.656;23.336;2023-03-22T08:45:30;94764.56;;;9.64;100.00
10706;BME280;5404;42.656;23.336;2023-03-22T08:47:56;94773.75;;;9.72;100.00
10706;BME280;5404;42.656;23.336;2023-03-22T08:50:22;94773.91;;;9.80;100.00
10706;BME280;5404;42.656;23.336;2023-03-22T08:52:48;94778.06;;;9.86;100.00
10706;BME280;5404;42.656;23.336;2023-03-22T08:55:13;94768.94;;;9.92;100.00
10706;BME280;5404;42.656;23.336;2023-03-22T08:57:42;94769.78;;;9.88;100.00
10706;BME280;5404;42.656;23.336;2023-03-22T09:00:11;94781.88;;;9.99;100.00
10706;BME280;5404;42.656;23.336;2023-03-22T09:02:36;94784.75;;;10.02;100.00
10706;BME280;5404;42.656;23.336;2023-03-22T09:05:02;94788.38;;;10.06;100.00
10706;BME280;5404;42.656;23.336;2023-03-22T09:07:28;94768.06;;;9.97;100.00
10706;BME280;5404;42.656;23.336;2023-03-22T09:09:55;94794.16;;;10.13;100.00
10706;BME280;5404;42.656;23.336;2023-03-22T09:12:20;94796.31;;;10.11;100.00
10706;BME280;5404;42.656;23.336;2023-03-22T09:14:45;94800.28;;;10.14;100.00
10706;BME280;5404;42.656;23.336;2023-03-22T09:17:14;94789.41;;;10.10;100.00
10706;BME280;5404;42.656;23.336;2023-03-22T09:19:40;94798.03;;;10.02;100.00
10706;BME280;5404;42.656;23.336;2023-03-22T09:22:05;94792.72;;;10.02;100.00
10706;BME280;5404;42.656;23.336;2023-03-22T09:24:32;94789.56;;;10.00;100.00
10706;BME280;5404;42.656;23.336;2023-03-22T09:26:58;94797.91;;;10.12;100.00
10706;BME280;5404;42.656;23.336;2023-03-22T09:29:23;94724.59;;;9.69;100.00
10706;BME280;5404;42.656;23.336;2023-03-22T09:31:49;94807.03;;;10.25;100.00
10706;BME280;5404;42.656;23.336;2023-03-22T09:34:15;94766.47;;;10.14;100.00
10706;BME280;5404;42.656;23.336;2023-03-22T09:36:41;94790.97;;;10.30;100.00
10706;BME280;5404;42.656;23.336;2023-03-22T09:39:07;94796.50;;;10.33;100.00
10706;BME280;5404;42.656;23.336;2023-03-22T09:41:43;94793.03;;;10.33;100.00
10706;BME280;5404;42.656;23.336;2023-03-22T09:44:15;94793.00;;;10.19;100.00
10706;BME280;5404;42.656;23.336;2023-03-22T09:46:48;94794.94;;;10.14;100.00
10706;BME280;5404;42.656;23.336;2023-03-22T09:49:17;94784.66;;;10.07;100.00
10706;BME280;5404;42.656;23.336;2023-03-22T09:51:49;94710.28;;;9.65;100.00
10706;BME280;5404;42.656;23.336;2023-03-22T09:54:19;94745.56;;;10.03;100.00
10706;BME280;5404;42.656;23.336;2023-03-22T09:56:54;94786.63;;;10.34;100.00
10706;BME280;5404;42.656;23.336;2023-03-22T10:01:59;94793.66;;;10.57;100.00
10706;BME280;5404;42.656;23.336;2023-03-22T10:04:46;94748.06;;;10.45;100.00
10706;BME280;5404;42.656;23.336;2023-03-22T10:10:37;94793.88;;;11.01;100.00
10706;BME280;5404;42.656;23.336;2023-03-22T10:15:48;94729.34;;;10.77;100.00
10706;BME280;5404;42.656;23.336;2023-03-22T10:18:26;94795.06;;;11.22;100.00
10706;BME280;5404;42.656;23.336;2023-03-22T10:23:45;94795.97;;;11.18;100.00
10706;BME280;5404;42.656;23.336;2023-03-22T10:26:28;94781.94;;;11.12;100.00
10706;BME280;5404;42.656;23.336;2023-03-22T10:31:31;94785.69;;;11.11;100.00
10706;BME280;5404;42.656;23.336;2023-03-22T10:36:32;94779.00;;;11.00;100.00
10706;BME280;5404;42.656;23.336;2023-03-22T10:39:18;94774.53;;;11.09;100.00
10706;BME280;5404;42.656;23.336;2023-03-22T10:41:48;94789.25;;;11.07;100.00
10706;BME280;5404;42.656;23.336;2023-03-22T10:44:18;94786.38;;;11.03;100.00
10706;BME280;5404;42.656;23.336;2023-03-22T10:46:45;94782.06;;;11.07;100.00
10706;BME280;5404;42.656;23.336;2023-03-22T10:49:21;94781.56;;;11.05;100.00
10706;BME280;5404;42.656;23.336;2023-03-22T10:51:49;94783.41;;;11.05;100.00
10706;BME280;5404;42.656;23.336;2023-03-22T10:54:24;94783.53;;;11.00;100.00
10706;BME280;5404;42.656;23.336;2023-03-22T10:56:50;94777.50;;;11.08;100.00
10706;BME280;5404;42.656;23.336;2023-03-22T11:00:08;94768.69;;;11.21;100.00
10706;BME280;5404;42.656;23.336;2023-03-22T11:02:31;94744.00;;;11.15;100.00
10706;BME280;5404;42.656;23.336;2023-03-22T11:04:59;94744.28;;;11.27;100.00
10706;BME280;5404;42.656;23.336;2023-03-22T11:07:35;94730.66;;;11.29;100.00
10706;BME280;5404;42.656;23.336;2023-03-22T11:12:43;94721.19;;;11.23;100.00
10706;BME280;5404;42.656;23.336;2023-03-22T11:15:28;94722.47;;;11.25;100.00
10706;BME280;5404;42.656;23.336;2023-03-22T11:18:05;94717.31;;;11.29;100.00
10706;BME280;5404;42.656;23.336;2023-03-22T11:20:32;94720.47;;;11.31;100.00
10706;BME280;5404;42.656;23.336;2023-03-22T11:23:03;94716.13;;;11.35;100.00
10706;BME280;5404;42.656;23.336;2023-03-22T11:25:32;94707.13;;;11.31;100.00
10706;BME280;5404;42.656;23.336;2023-03-22T11:28:18;94722.13;;;11.40;100.00
10706;BME280;5404;42.656;23.336;2023-03-22T11:33:24;94714.16;;;11.27;100.00
10706;BME280;5404;42.656;23.336;2023-03-22T11:36:02;94721.28;;;11.31;100.00
10706;BME280;5404;42.656;23.336;2023-03-22T11:38:35;94727.78;;;11.25;100.00
10706;BME280;5404;42.656;23.336;2023-03-22T11:41:07;94720.50;;;11.17;100.00
10706;BME280;5404;42.656;23.336;2023-03-22T11:43:52;94729.47;;;11.21;100.00
10706;BME280;5404;42.656;23.336;2023-03-22T11:46:19;94724.63;;;11.23;100.00
10706;BME280;5404;42.656;23.336;2023-03-22T11:48:47;94721.78;;;11.20;100.00
10706;BME280;5404;42.656;23.336;2023-03-22T11:51:25;94728.09;;;11.24;100.00
10706;BME280;5404;42.656;23.336;2023-03-22T11:53:55;94728.59;;;11.26;100.00
10706;BME280;5404;42.656;23.336;2023-03-22T11:56:27;94732.06;;;11.26;100.00
10706;BME280;5404;42.656;23.336;2023-03-22T11:59:02;94747.38;;;11.21;100.00
10706;BME280;5404;42.656;23.336;2023-03-22T12:01:31;94743.22;;;11.15;100.00
10706;BME280;5404;42.656;23.336;2023-03-22T12:04:00;94757.34;;;11.15;100.00
10706;BME280;5404;42.656;23.336;2023-03-22T12:06:32;94733.38;;;11.02;100.00
10706;BME280;5404;42.656;23.336;2023-03-22T12:09:38;94753.50;;;11.08;100.00
10706;BME280;5404;42.656;23.336;2023-03-22T12:12:15;94751.91;;;11.07;100.00
10706;BME280;5404;42.656;23.336;2023-03-22T12:17:31;94733.84;;;11.17;100.00
10706;BME280;5404;42.656;23.336;2023-03-22T12:20:28;94731.59;;;11.11;100.00
10706;BME280;5404;42.656;23.336;2023-03-22T12:22:53;94720.81;;;11.16;100.00
10706;BME280;5404;42.656;23.336;2023-03-22T12:25:22;94718.22;;;11.24;100.00
10706;BME280;5404;42.656;23.336;2023-03-22T12:27:58;94723.81;;;11.36;100.00
10706;BME280;5404;42.656;23.336;2023-03-22T12:30:30;94714.59;;;11.42;100.00
10706;BME280;5404;42.656;23.336;2023-03-22T12:33:08;94710.63;;;11.53;100.00
10706;BME280;5404;42.656;23.336;2023-03-22T12:35:37;94718.31;;;11.68;100.00
10706;BME280;5404;42.656;23.336;2023-03-22T12:38:23;94708.44;;;11.69;100.00
10706;BME280;5404;42.656;23.336;2023-03-22T12:40:53;94700.34;;;11.83;100.00
10706;BME280;5404;42.656;23.336;2023-03-22T12:46:04;94677.59;;;11.85;100.00
10706;BME280;5404;42.656;23.336;2023-03-22T12:48:44;94690.88;;;11.99;100.00
10706;BME280;5404;42.656;23.336;2023-03-22T12:51:12;94690.66;;;12.17;100.00
10706;BME280;5404;42.656;23.336;2023-03-22T12:53:44;94678.69;;;12.45;100.00
10706;BME280;5404;42.656;23.336;2023-03-22T12:56:14;94675.00;;;12.63;100.00
10706;BME280;5404;42.656;23.336;2023-03-22T12:58:45;94677.69;;;12.72;100.00
10706;BME280;5404;42.656;23.336;2023-03-22T13:01:36;94668.44;;;12.95;100.00
10706;BME280;5404;42.656;23.336;2023-03-22T13:09:37;94635.47;;;13.08;100.00
10706;BME280;5404;42.656;23.336;2023-03-22T13:30:52;94664.34;;;12.33;100.00
10706;BME280;5404;42.656;23.336;2023-03-22T13:33:34;94646.91;;;12.05;100.00
10706;BME280;5404;42.656;23.336;2023-03-22T13:36:22;94676.34;;;12.13;100.00
10706;BME280;5404;42.656;23.336;2023-03-22T13:38:57;94677.53;;;11.99;100.00
10706;BME280;5404;42.656;23.336;2023-03-22T13:41:28;94668.81;;;11.85;100.00
10706;BME280;5404;42.656;23.336;2023-03-22T13:43:58;94688.03;;;11.95;100.00
10706;BME280;5404;42.656;23.336;2023-03-22T13:49:47;94699.16;;;11.97;100.00
10706;BME280;5404;42.656;23.336;2023-03-22T13:51:57;94700.47;;;12.00;100.00
10706;BME280;5404;42.656;23.336;2023-03-22T13:54:33;94706.47;;;12.05;100.00
10706;BME280;5404;42.656;23.336;2023-03-22T13:57:00;94711.50;;;12.07;100.00
10706;BME280;5404;42.656;23.336;2023-03-22T14:04:37;94702.31;;;12.52;100.00
10706;BME280;5404;42.656;23.336;2023-03-22T14:07:15;94690.50;;;12.53;100.00
10706;BME280;5404;42.656;23.336;2023-03-22T14:09:50;94670.16;;;12.35;100.00
10706;BME280;5404;42.656;23.336;2023-03-22T14:14:59;94682.63;;;12.48;100.00
10706;BME280;5404;42.656;23.336;2023-03-22T14:17:42;94687.97;;;12.48;100.00
10706;BME280;5404;42.656;23.336;2023-03-22T14:20:14;94682.63;;;12.48;100.00
10706;BME280;5404;42.656;23.336;2023-03-22T14:22:47;94678.38;;;12.47;100.00
10706;BME280;5404;42.656;23.336;2023-03-22T14:25:21;94685.97;;;12.53;100.00
10706;BME280;5404;42.656;23.336;2023-03-22T14:27:49;94685.16;;;12.53;100.00
10706;BME280;5404;42.656;23.336;2023-03-22T14:30:38;94686.28;;;12.52;100.00
10706;BME280;5404;42.656;23.336;2023-03-22T14:33:11;94678.25;;;12.52;100.00
10706;BME280;5404;42.656;23.336;2023-03-22T14:35:40;94686.13;;;12.57;100.00
10706;BME280;5404;42.656;23.336;2023-03-22T14:38:19;94682.34;;;12.58;100.00
10706;BME280;5404;42.656;23.336;2023-03-22T14:40:45;94686.72;;;12.54;100.00
10706;BME280;5404;42.656;23.336;2023-03-22T14:43:13;94670.66;;;12.45;100.00
10706;BME280;5404;42.656;23.336;2023-03-22T14:45:39;94678.50;;;12.42;100.00
10706;BME280;5404;42.656;23.336;2023-03-22T14:48:32;94685.47;;;12.51;100.00
10706;BME280;5404;42.656;23.336;2023-03-22T14:51:01;94689.69;;;12.44;100.00